createdAt,value
2023-03-03T00:00:56.280Z,25.70
2023-03-03T00:03:25.655Z,24.70
2023-03-03T00:05:54.529Z,25.40
2023-03-03T00:08:23.116Z,22.07
2023-03-03T00:10:51.383Z,21.13
2023-03-03T00:13:22.928Z,22.93
2023-03-03T00:15:51.946Z,23.20
2023-03-03T00:18:29.843Z,25.73
2023-03-03T00:21:00.900Z,22.53
2023-03-03T00:23:32.398Z,28.23
2023-03-03T00:26:00.627Z,23.10
2023-03-03T00:28:31.841Z,20.87
2023-03-03T00:31:01.628Z,24.17
2023-03-03T00:33:33.450Z,23.00
2023-03-03T00:36:28.598Z,22.83
2023-03-03T00:38:56.220Z,21.47
2023-03-03T00:41:26.083Z,22.83
2023-03-03T00:43:55.656Z,20.17
2023-03-03T00:46:25.333Z,24.40
2023-03-03T00:48:53.070Z,24.93
2023-03-03T00:51:30.900Z,22.17
2023-03-03T00:53:59.557Z,24.13
2023-03-03T00:56:28.497Z,24.43
2023-03-03T00:58:57.460Z,23.83
2023-03-03T01:01:27.421Z,22.93
2023-03-03T01:03:55.339Z,20.60
2023-03-03T01:06:23.406Z,22.63
2023-03-03T01:08:51.243Z,20.60
2023-03-03T01:11:24.396Z,21.20
2023-03-03T01:13:53.259Z,23.97
2023-03-03T01:16:22.862Z,22.07
2023-03-03T01:18:51.556Z,22.17
2023-03-03T01:21:19.726Z,26.10
2023-03-03T01:23:47.460Z,23.03
2023-03-03T01:26:15.773Z,22.53
2023-03-03T01:28:43.387Z,21.47
2023-03-03T01:31:11.531Z,23.07
2023-03-03T01:33:40.461Z,24.70
2023-03-03T01:36:09.532Z,23.97
2023-03-03T01:38:37.715Z,25.30
2023-03-03T01:41:06.611Z,21.60
2023-03-03T01:43:35.109Z,25.30
2023-03-03T01:46:30.278Z,21.67
2023-03-03T01:49:03.307Z,23.03
2023-03-03T01:51:35.108Z,23.33
2023-03-03T01:54:04.946Z,24.90
2023-03-03T01:56:32.936Z,23.97
2023-03-03T01:59:05.112Z,24.73
2023-03-03T02:01:34.360Z,22.87
2023-03-03T02:04:04.924Z,25.67
2023-03-03T02:06:36.848Z,21.33
2023-03-03T02:09:12.689Z,22.23
2023-03-03T02:11:44.857Z,22.03
2023-03-03T02:14:13.372Z,21.37
2023-03-03T02:16:44.597Z,24.97
2023-03-03T02:19:23.426Z,23.50
2023-03-03T02:21:51.812Z,22.07
2023-03-03T02:24:26.665Z,22.83
2023-03-03T02:26:56.531Z,25.57
2023-03-03T02:29:24.330Z,23.13
2023-03-03T02:31:53.894Z,25.17
2023-03-03T02:34:23.114Z,23.33
2023-03-03T02:36:51.384Z,23.23
2023-03-03T02:39:21.040Z,23.10
2023-03-03T02:41:56.429Z,23.43
2023-03-03T02:44:30.334Z,24.80
2023-03-03T02:47:00.163Z,25.63
2023-03-03T02:49:30.891Z,25.87
2023-03-03T02:51:59.927Z,22.07
2023-03-03T02:54:30.196Z,24.83
2023-03-03T02:56:59.538Z,23.63
2023-03-03T02:59:29.392Z,21.00
2023-03-03T03:01:59.472Z,23.43
2023-03-03T03:04:28.405Z,24.40
2023-03-03T03:06:57.732Z,22.00
2023-03-03T03:09:28.553Z,25.73
2023-03-03T03:11:57.150Z,24.67
2023-03-03T03:14:26.939Z,24.10
2023-03-03T03:16:57.437Z,22.23
2023-03-03T03:19:25.068Z,23.93
2023-03-03T03:21:53.157Z,25.70
2023-03-03T03:24:21.641Z,23.73
2023-03-03T03:26:55.769Z,21.57
2023-03-03T03:29:24.727Z,21.10
2023-03-03T03:31:53.052Z,22.60
2023-03-03T03:34:22.483Z,23.87
2023-03-03T03:36:51.600Z,20.43
2023-03-03T03:39:20.778Z,23.87
2023-03-03T03:41:50.849Z,21.10
2023-03-03T03:44:19.021Z,26.13
2023-03-03T03:46:46.611Z,25.43
2023-03-03T03:49:14.349Z,26.60
2023-03-03T03:51:43.919Z,27.67
2023-03-03T03:54:15.400Z,26.90
2023-03-03T03:56:44.002Z,24.90
2023-03-03T03:59:12.979Z,23.50
2023-03-03T04:01:40.651Z,25.13
2023-03-03T04:04:09.335Z,26.83
2023-03-03T04:06:37.042Z,25.33
2023-03-03T04:09:08.212Z,21.30
2023-03-03T04:11:36.417Z,22.53
2023-03-03T04:14:06.790Z,21.57
2023-03-03T04:16:36.060Z,23.57
2023-03-03T04:19:04.437Z,22.77
2023-03-03T04:21:34.208Z,23.97
2023-03-03T04:24:03.798Z,22.60
2023-03-03T04:26:33.248Z,24.07
2023-03-03T04:29:04.237Z,22.67
2023-03-03T04:31:32.329Z,22.73
2023-03-03T04:34:01.075Z,25.20
2023-03-03T04:36:29.723Z,23.23
2023-03-03T04:38:58.681Z,22.20
2023-03-03T04:41:27.103Z,25.23
2023-03-03T04:43:56.232Z,22.17
2023-03-03T04:46:23.981Z,23.03
2023-03-03T04:48:53.039Z,23.10
2023-03-03T04:51:21.237Z,20.63
2023-03-03T04:53:49.743Z,26.13
2023-03-03T04:56:17.421Z,21.37
2023-03-03T04:58:46.424Z,22.10
2023-03-03T05:01:15.651Z,25.77
2023-03-03T05:03:43.985Z,23.13
2023-03-03T05:06:13.076Z,25.80
2023-03-03T05:08:43.351Z,21.93
2023-03-03T05:11:10.933Z,21.97
2023-03-03T05:13:39.288Z,24.33
2023-03-03T05:16:07.680Z,22.00
2023-03-03T05:18:36.757Z,26.47
2023-03-03T05:21:04.731Z,24.33
2023-03-03T05:23:32.851Z,24.53
2023-03-03T05:26:00.557Z,24.57
2023-03-03T05:28:28.484Z,23.37
2023-03-03T05:30:56.100Z,28.43
2023-03-03T05:33:24.554Z,25.60
2023-03-03T05:35:56.766Z,23.90
2023-03-03T05:38:25.300Z,26.43
2023-03-03T05:40:53.078Z,25.57
2023-03-03T05:43:21.010Z,24.97
2023-03-03T05:45:48.568Z,26.17
2023-03-03T05:48:16.569Z,22.43
2023-03-03T05:50:44.126Z,26.70
2023-03-03T05:53:13.044Z,24.37
2023-03-03T05:55:41.542Z,22.93
2023-03-03T05:58:09.437Z,21.73
2023-03-03T06:00:37.340Z,24.97
2023-03-03T06:03:04.969Z,25.53
2023-03-03T06:05:33.313Z,24.10
2023-03-03T06:08:00.918Z,20.97
2023-03-03T06:10:30.382Z,25.73
2023-03-03T06:13:00.908Z,24.00
2023-03-03T06:15:29.390Z,22.20
2023-03-03T06:17:57.432Z,21.93
2023-03-03T06:20:25.569Z,25.00
2023-03-03T06:22:53.154Z,23.87
2023-03-03T06:25:20.933Z,25.57
2023-03-03T06:27:49.880Z,25.73
2023-03-03T06:30:19.256Z,26.73
2023-03-03T06:32:47.533Z,25.13
2023-03-03T06:35:18.345Z,26.77
2023-03-03T06:37:46.196Z,26.93
2023-03-03T06:40:14.676Z,26.10
2023-03-03T06:42:42.237Z,26.30
2023-03-03T06:45:12.690Z,26.23
2023-03-03T06:47:40.371Z,24.07
2023-03-03T06:50:09.497Z,21.93
2023-03-03T06:52:37.072Z,26.47
2023-03-03T06:55:13.193Z,24.67
2023-03-03T06:57:41.763Z,28.20
2023-03-03T07:00:20.435Z,25.40
2023-03-03T07:02:49.005Z,24.93
2023-03-03T07:05:18.978Z,23.90
2023-03-03T07:07:46.629Z,23.60
2023-03-03T07:10:23.379Z,26.07
2023-03-03T07:12:50.975Z,24.63
2023-03-03T07:15:23.428Z,27.97
2023-03-03T07:17:53.824Z,27.37
2023-03-03T07:20:23.985Z,26.50
2023-03-03T07:22:52.241Z,23.93
2023-03-03T07:25:31.944Z,23.00
2023-03-03T07:28:12.434Z,20.23
2023-03-03T07:30:42.316Z,23.63
2023-03-03T07:33:20.492Z,25.03
2023-03-03T07:35:48.619Z,24.30
2023-03-03T07:38:25.657Z,24.80
2023-03-03T07:40:55.278Z,25.27
2023-03-03T07:43:36.742Z,25.33
2023-03-03T07:46:23.773Z,24.60
2023-03-03T07:48:51.889Z,26.97
2023-03-03T07:51:25.582Z,26.47
2023-03-03T07:53:54.433Z,27.47
2023-03-03T07:56:30.701Z,26.73
2023-03-03T07:58:59.770Z,27.87
2023-03-03T08:01:40.899Z,21.77
2023-03-03T08:04:19.308Z,28.60
2023-03-03T08:06:49.500Z,25.70
2023-03-03T08:09:39.305Z,26.37
2023-03-03T08:12:33.851Z,26.53
2023-03-03T08:15:17.643Z,26.17
2023-03-03T08:17:47.443Z,23.73
2023-03-03T08:20:43.846Z,25.13
2023-03-03T08:23:11.552Z,24.50
2023-03-03T08:25:39.493Z,24.97
2023-03-03T08:28:07.289Z,23.37
2023-03-03T08:30:35.102Z,27.03
2023-03-03T08:33:04.460Z,23.57
2023-03-03T08:35:32.054Z,24.57
2023-03-03T08:38:00.630Z,29.90
2023-03-03T08:40:28.257Z,26.37
2023-03-03T08:42:58.576Z,29.40
2023-03-03T08:45:27.383Z,24.57
2023-03-03T08:47:55.639Z,25.57
2023-03-03T08:50:24.589Z,27.30
2023-03-03T08:52:52.341Z,27.00
2023-03-03T08:55:20.205Z,27.17
2023-03-03T08:57:48.535Z,25.53
2023-03-03T09:00:18.444Z,25.37
2023-03-03T09:02:46.768Z,24.53
2023-03-03T09:05:15.472Z,26.93
2023-03-03T09:07:47.818Z,25.67
2023-03-03T09:10:17.628Z,27.30
2023-03-03T09:12:49.179Z,27.00
2023-03-03T09:15:23.752Z,23.07
2023-03-03T09:17:52.148Z,28.70
2023-03-03T09:20:35.588Z,29.40
2023-03-03T09:23:29.112Z,27.73
2023-03-03T09:25:57.211Z,25.30
2023-03-03T09:28:26.740Z,26.10
2023-03-03T09:30:57.626Z,26.53
2023-03-03T09:33:29.575Z,26.60
2023-03-03T09:36:06.876Z,22.90
2023-03-03T09:38:43.710Z,26.80
2023-03-03T09:41:28.527Z,28.27
2023-03-03T09:44:19.650Z,27.20
2023-03-03T09:47:02.927Z,25.07
2023-03-03T09:49:34.019Z,24.17
2023-03-03T09:52:19.442Z,26.97
2023-03-03T09:55:08.280Z,24.50
2023-03-03T09:58:04.484Z,24.83
2023-03-03T10:00:50.976Z,24.23
2023-03-03T10:03:46.491Z,21.77
2023-03-03T10:06:26.356Z,23.73
2023-03-03T10:09:07.168Z,24.47
2023-03-03T10:11:42.863Z,27.67
2023-03-03T10:14:46.446Z,24.47
2023-03-03T10:17:26.899Z,23.70
2023-03-03T10:20:22.865Z,26.50
2023-03-03T10:22:56.147Z,24.37
2023-03-03T10:25:37.034Z,27.90
2023-03-03T10:28:25.845Z,24.43
2023-03-03T10:31:11.750Z,23.23
2023-03-03T10:33:50.837Z,23.10
2023-03-03T10:36:32.142Z,22.47
2023-03-03T10:39:11.056Z,26.27
2023-03-03T10:41:59.426Z,25.67
2023-03-03T10:44:49.208Z,24.77
2023-03-03T10:47:39.668Z,25.93
2023-03-03T10:50:19.303Z,23.63
2023-03-03T10:52:53.051Z,26.37
2023-03-03T10:55:39.403Z,25.00
2023-03-03T10:58:46.653Z,23.27
2023-03-03T11:01:24.750Z,22.13
2023-03-03T11:04:23.474Z,22.90
2023-03-03T11:06:57.715Z,25.00
2023-03-03T11:09:51.187Z,25.03
2023-03-03T11:12:30.288Z,23.13
2023-03-03T11:15:13.709Z,20.43
2023-03-03T11:17:56.314Z,23.57
2023-03-03T11:20:35.843Z,27.50
2023-03-03T11:23:17.525Z,24.67
2023-03-03T11:25:53.051Z,25.37
2023-03-03T11:28:37.290Z,22.57
2023-03-03T11:31:19.599Z,24.30
2023-03-03T11:33:59.813Z,28.47
2023-03-03T11:36:33.928Z,25.33
2023-03-03T11:39:05.570Z,23.73
2023-03-03T11:41:38.803Z,23.80
2023-03-03T11:44:19.040Z,29.13
2023-03-03T11:46:50.610Z,21.17
2023-03-03T11:49:26.612Z,24.17
2023-03-03T11:52:04.191Z,25.73
2023-03-03T11:54:40.305Z,25.93
2023-03-03T11:57:20.124Z,24.13
2023-03-03T12:00:05.273Z,23.17
2023-03-03T12:02:59.526Z,21.60
2023-03-03T12:05:39.908Z,27.73
2023-03-03T12:08:23.505Z,24.40
2023-03-03T12:10:59.418Z,24.17
2023-03-03T12:13:34.846Z,22.53
2023-03-03T12:16:12.828Z,23.40
2023-03-03T12:19:08.282Z,24.00
2023-03-03T12:21:53.647Z,22.50
2023-03-03T12:24:34.873Z,23.97
2023-03-03T12:27:14.092Z,25.50
2023-03-03T12:29:46.917Z,25.63
2023-03-03T12:32:29.936Z,27.23
2023-03-03T12:35:03.576Z,25.67
2023-03-03T12:37:51.249Z,27.93
2023-03-03T12:40:21.839Z,25.47
2023-03-03T12:43:23.692Z,24.53
2023-03-03T12:45:59.448Z,23.40
2023-03-03T12:48:37.350Z,26.33
2023-03-03T12:51:16.068Z,26.57
2023-03-03T12:54:15.391Z,25.93
2023-03-03T12:56:48.750Z,24.50
2023-03-03T12:59:22.347Z,25.23
2023-03-03T13:02:05.828Z,23.73
2023-03-03T13:04:39.977Z,24.67
2023-03-03T13:07:16.040Z,23.93
2023-03-03T13:10:04.538Z,26.20
2023-03-03T13:12:40.326Z,23.03
2023-03-03T13:15:18.168Z,23.17
2023-03-03T13:17:57.224Z,23.90
2023-03-03T13:20:36.756Z,24.13
2023-03-03T13:23:10.035Z,23.60
2023-03-03T13:25:51.134Z,25.67
2023-03-03T13:28:27.242Z,25.20
2023-03-03T13:31:02.531Z,20.20
2023-03-03T13:33:33.466Z,22.80
2023-03-03T13:36:04.921Z,22.50
2023-03-03T13:38:35.083Z,21.93
2023-03-03T13:41:11.237Z,23.73
2023-03-03T13:43:47.489Z,22.83
2023-03-03T13:46:27.093Z,23.93
2023-03-03T13:49:14.602Z,22.07
2023-03-03T13:51:50.539Z,23.43
2023-03-03T13:54:36.928Z,22.67
2023-03-03T13:57:20.198Z,24.37
2023-03-03T13:59:59.181Z,23.10
2023-03-03T14:02:46.376Z,20.73
2023-03-03T14:05:18.634Z,22.20
2023-03-03T14:07:53.171Z,21.83
2023-03-03T14:10:28.157Z,23.13
2023-03-03T14:13:04.444Z,21.10
2023-03-03T14:15:36.815Z,22.27
2023-03-03T14:18:26.713Z,26.33
2023-03-03T14:20:57.778Z,21.03
2023-03-03T14:23:32.010Z,22.03
2023-03-03T14:26:01.516Z,23.13
2023-03-03T14:28:39.009Z,24.53
2023-03-03T14:31:17.697Z,26.03
2023-03-03T14:33:57.572Z,24.40
2023-03-03T14:36:30.512Z,25.10
2023-03-03T14:38:58.263Z,25.30
2023-03-03T14:41:38.193Z,19.80
2023-03-03T14:44:29.612Z,24.43
2023-03-03T14:47:17.804Z,21.63
2023-03-03T14:49:45.584Z,25.73
2023-03-03T14:52:22.168Z,27.47
2023-03-03T14:54:51.887Z,25.40
2023-03-03T14:57:21.305Z,24.50
2023-03-03T15:00:02.899Z,22.57
2023-03-03T15:02:36.648Z,25.07
2023-03-03T15:05:24.786Z,26.00
2023-03-03T15:07:56.979Z,24.20
2023-03-03T15:10:29.927Z,24.97
2023-03-03T15:12:57.912Z,24.20
2023-03-03T15:15:30.105Z,24.80
2023-03-03T15:18:02.814Z,24.27
2023-03-03T15:20:39.854Z,25.27
2023-03-03T15:23:24.604Z,25.53
2023-03-03T15:25:59.579Z,27.30
2023-03-03T15:28:37.706Z,25.47
2023-03-03T15:31:17.755Z,26.90
2023-03-03T15:33:54.113Z,23.93
2023-03-03T15:36:33.295Z,24.20
2023-03-03T15:39:10.949Z,24.37
2023-03-03T15:41:44.331Z,24.03
2023-03-03T15:44:17.749Z,23.03
2023-03-03T15:47:01.137Z,23.77
2023-03-03T15:49:52.874Z,26.33
2023-03-03T15:52:34.827Z,26.27
2023-03-03T15:55:18.590Z,24.47
2023-03-03T15:57:58.262Z,25.57
2023-03-03T16:00:41.680Z,23.77
2023-03-03T16:03:18.403Z,27.33
2023-03-03T16:05:54.400Z,23.70
2023-03-03T16:08:26.975Z,25.27
2023-03-03T16:11:04.866Z,25.93
2023-03-03T16:13:48.875Z,24.73
2023-03-03T16:16:26.447Z,27.57
2023-03-03T16:19:07.987Z,23.47
2023-03-03T16:21:55.134Z,23.47
2023-03-03T16:24:39.688Z,24.37
2023-03-03T16:27:15.768Z,25.43
2023-03-03T16:30:05.175Z,23.83
2023-03-03T16:32:39.552Z,24.53
2023-03-03T16:35:22.123Z,24.40
2023-03-03T16:37:58.423Z,21.47
2023-03-03T16:40:32.003Z,22.10
2023-03-03T16:43:15.155Z,26.77
2023-03-03T16:45:44.517Z,23.87
2023-03-03T16:48:23.669Z,27.83
2023-03-03T16:51:10.561Z,24.90
2023-03-03T16:53:53.315Z,25.30
2023-03-03T16:56:24.730Z,24.67
2023-03-03T16:59:06.293Z,25.90
2023-03-03T17:01:44.694Z,26.80
2023-03-03T17:04:16.036Z,25.90
2023-03-03T17:06:54.521Z,33.63
2023-03-03T17:09:50.896Z,29.43
2023-03-03T17:12:35.148Z,33.33
2023-03-03T17:15:17.487Z,35.87
2023-03-03T17:17:53.328Z,32.70
2023-03-03T17:20:31.949Z,28.67
2023-03-03T17:23:31.533Z,29.50
2023-03-03T17:26:10.424Z,30.40
2023-03-03T17:28:46.619Z,31.07
2023-03-03T17:31:21.152Z,25.93
2023-03-03T17:34:16.366Z,25.43
2023-03-03T17:37:04.385Z,25.50
2023-03-03T17:39:52.945Z,24.33
2023-03-03T17:42:31.010Z,26.60
2023-03-03T17:45:05.309Z,27.20
2023-03-03T17:47:47.788Z,25.10
2023-03-03T17:50:29.908Z,27.50
2023-03-03T17:53:20.384Z,32.20
2023-03-03T17:55:59.763Z,28.17
2023-03-03T17:58:48.399Z,27.87
2023-03-03T18:01:24.557Z,21.73
2023-03-03T18:04:04.087Z,24.53
2023-03-03T18:06:55.384Z,24.10
2023-03-03T18:09:41.108Z,21.77
2023-03-03T18:12:19.966Z,22.40
2023-03-03T18:15:10.737Z,21.40
2023-03-03T18:17:52.551Z,22.07
2023-03-03T18:20:37.132Z,23.27
2023-03-03T18:23:43.327Z,24.50
2023-03-03T18:26:35.615Z,22.07
2023-03-03T18:29:29.879Z,24.47
2023-03-03T18:32:17.607Z,20.37
2023-03-03T18:34:45.444Z,21.73
2023-03-03T18:37:45.075Z,22.37
2023-03-03T18:40:33.878Z,27.27
2023-03-03T18:43:40.368Z,27.47
2023-03-03T18:46:13.505Z,27.13
2023-03-03T18:48:50.180Z,24.97
2023-03-03T18:51:50.140Z,27.40
2023-03-03T18:54:30.979Z,24.80
2023-03-03T18:57:17.098Z,23.33
2023-03-03T18:59:57.125Z,22.97
2023-03-03T19:02:38.905Z,25.00
2023-03-03T19:05:19.145Z,21.73
2023-03-03T19:07:52.822Z,20.83
2023-03-03T19:10:49.396Z,24.10
2023-03-03T19:13:47.882Z,25.53
2023-03-03T19:16:37.735Z,21.57
2023-03-03T19:19:16.295Z,25.10
2023-03-03T19:21:48.240Z,24.43
2023-03-03T19:24:28.945Z,23.70
2023-03-03T19:27:28.583Z,21.13
2023-03-03T19:30:22.813Z,25.40
2023-03-03T19:33:19.841Z,22.37
2023-03-03T19:36:01.214Z,21.20
2023-03-03T19:38:38.267Z,23.40
2023-03-03T19:41:23.350Z,24.27
2023-03-03T19:44:04.893Z,27.13
2023-03-03T19:46:51.432Z,24.90
2023-03-03T19:49:28.822Z,23.57
2023-03-03T19:52:05.310Z,23.43
2023-03-03T19:54:53.707Z,22.60
2023-03-03T19:57:36.844Z,25.00
2023-03-03T20:00:10.407Z,24.63
2023-03-03T20:02:50.713Z,22.73
2023-03-03T20:05:25.716Z,23.40
2023-03-03T20:08:00.257Z,23.40
2023-03-03T20:10:42.885Z,30.40
2023-03-03T20:13:23.262Z,32.00
2023-03-03T20:15:57.846Z,28.07
2023-03-03T20:18:43.616Z,31.20
2023-03-03T20:21:24.808Z,27.00
2023-03-03T20:24:11.780Z,29.30
2023-03-03T20:26:57.430Z,24.77
2023-03-03T20:29:44.537Z,23.30
2023-03-03T20:32:21.052Z,25.70
2023-03-03T20:34:57.761Z,27.00
2023-03-03T20:37:33.200Z,26.00
2023-03-03T20:40:11.874Z,26.67
2023-03-03T20:42:52.772Z,26.60
2023-03-03T20:45:33.516Z,29.63
2023-03-03T20:48:16.405Z,29.13
2023-03-03T20:50:55.236Z,27.33
2023-03-03T20:53:30.331Z,25.00
2023-03-03T20:56:07.873Z,32.50
2023-03-03T20:58:48.480Z,30.47
2023-03-03T21:01:21.929Z,31.13
2023-03-03T21:03:49.615Z,30.00
2023-03-03T21:06:20.860Z,28.63
2023-03-03T21:08:53.233Z,30.90
2023-03-03T21:11:24.448Z,30.23
2023-03-03T21:13:54.206Z,28.93
2023-03-03T21:16:33.599Z,30.47
2023-03-03T21:19:03.214Z,29.83
2023-03-03T21:21:33.073Z,31.47
2023-03-03T21:24:00.679Z,31.43
2023-03-03T21:26:56.594Z,28.10
2023-03-03T21:29:27.648Z,30.73
2023-03-03T21:31:59.342Z,30.17
2023-03-03T21:34:30.148Z,30.30
2023-03-03T21:36:59.702Z,31.33
2023-03-03T21:39:29.972Z,32.23
2023-03-03T21:42:03.023Z,34.40
2023-03-03T21:44:37.742Z,31.63
2023-03-03T21:47:07.367Z,33.70
2023-03-03T21:49:35.496Z,32.77
2023-03-03T21:52:03.907Z,35.80
2023-03-03T21:54:31.480Z,32.90
2023-03-03T21:57:01.428Z,34.23
2023-03-03T21:59:29.521Z,31.57
2023-03-03T22:01:57.371Z,32.53
2023-03-03T22:04:24.990Z,31.77
2023-03-03T22:06:54.335Z,32.40
2023-03-03T22:09:21.924Z,33.70
2023-03-03T22:11:49.750Z,30.23
2023-03-03T22:14:18.762Z,30.97
2023-03-03T22:16:46.960Z,27.73
2023-03-03T22:19:14.723Z,28.80
2023-03-03T22:21:43.154Z,29.47
2023-03-03T22:24:11.134Z,31.13
2023-03-03T22:26:38.794Z,29.43
2023-03-03T22:29:07.672Z,26.63
2023-03-03T22:31:36.892Z,28.77
2023-03-03T22:34:04.851Z,31.13
2023-03-03T22:36:32.900Z,27.50
2023-03-03T22:39:02.355Z,29.43
2023-03-03T22:41:29.921Z,26.47
2023-03-03T22:43:57.661Z,30.80
2023-03-03T22:46:25.629Z,30.87
2023-03-03T22:48:54.880Z,28.40
2023-03-03T22:51:22.529Z,29.70
2023-03-03T22:53:50.172Z,27.17
2023-03-03T22:56:18.212Z,28.87
2023-03-03T22:58:46.181Z,29.10
2023-03-03T23:01:13.869Z,26.00
2023-03-03T23:03:41.778Z,27.80
2023-03-03T23:06:10.703Z,30.70
2023-03-03T23:08:38.702Z,29.37
2023-03-03T23:11:06.317Z,27.83
2023-03-03T23:13:35.541Z,25.57
2023-03-03T23:16:03.560Z,27.30
2023-03-03T23:18:31.181Z,28.60
2023-03-03T23:20:58.802Z,27.13
2023-03-03T23:23:29.919Z,25.07
2023-03-03T23:25:57.840Z,29.37
2023-03-03T23:28:25.870Z,29.57
2023-03-03T23:30:53.483Z,26.80
2023-03-03T23:33:21.746Z,27.93
2023-03-03T23:35:49.861Z,26.60
2023-03-03T23:38:17.769Z,24.67
2023-03-03T23:40:47.601Z,29.87
2023-03-03T23:43:15.342Z,26.17
2023-03-03T23:45:42.911Z,28.90
2023-03-03T23:48:10.984Z,25.60
2023-03-03T23:50:39.173Z,26.50
2023-03-03T23:53:08.165Z,28.37
2023-03-03T23:55:37.706Z,27.87
2023-03-03T23:58:07.297Z,28.23
